createdAt,value
2022-08-30T00:01:25.559Z,101629.44
2022-08-30T00:03:55.937Z,101631.91
2022-08-30T00:06:25.194Z,101634.59
2022-08-30T00:08:54.503Z,101636.47
2022-08-30T00:11:27.293Z,101631.19
2022-08-30T00:13:57.889Z,101633.75
2022-08-30T00:16:26.865Z,101631.09
2022-08-30T00:18:57.040Z,101638.97
2022-08-30T00:21:27.122Z,101640.03
2022-08-30T00:23:55.597Z,101637.53
2022-08-30T00:26:23.439Z,101634.81
2022-08-30T00:28:51.274Z,101635.75
2022-08-30T00:31:19.159Z,101643.44
2022-08-30T00:33:47.209Z,101646.97
2022-08-30T00:36:16.534Z,101647.81
2022-08-30T00:38:44.504Z,101646.88
2022-08-30T00:41:12.451Z,101646.78
2022-08-30T00:43:40.311Z,101641.91
2022-08-30T00:46:10.255Z,101642.97
2022-08-30T00:48:44.416Z,101639.47
2022-08-30T00:51:16.866Z,101638.50
2022-08-30T00:53:49.945Z,101638.25
2022-08-30T00:56:19.878Z,101644.34
2022-08-30T00:58:55.728Z,101640.25
2022-08-30T01:01:24.556Z,101652.81
2022-08-30T01:03:53.419Z,101656.22
2022-08-30T01:06:23.088Z,101650.91
2022-08-30T01:08:50.949Z,101644.53
2022-08-30T01:11:23.571Z,101649.81
2022-08-30T01:13:56.121Z,101661.19
2022-08-30T01:16:25.968Z,101661.03
2022-08-30T01:18:59.524Z,101659.56
2022-08-30T01:21:37.916Z,101663.31
2022-08-30T01:24:09.964Z,101659.06
2022-08-30T01:26:39.759Z,101655.22
2022-08-30T01:29:12.368Z,101660.34
2022-08-30T01:31:40.567Z,101662.22
2022-08-30T01:34:10.019Z,101663.00
2022-08-30T01:36:45.031Z,101661.28
2022-08-30T01:39:18.208Z,101656.06
2022-08-30T01:41:46.638Z,101661.63
2022-08-30T01:44:15.985Z,101667.03
2022-08-30T01:46:47.862Z,101662.16
2022-08-30T01:49:27.747Z,101667.31
2022-08-30T01:52:00.560Z,101660.09
2022-08-30T01:54:33.207Z,101658.00
2022-08-30T01:57:06.590Z,101659.16
2022-08-30T01:59:35.353Z,101652.88
2022-08-30T02:02:04.195Z,101655.81
2022-08-30T02:04:32.341Z,101665.44
2022-08-30T02:07:00.413Z,101658.78
2022-08-30T02:09:29.682Z,101658.38
2022-08-30T02:11:57.957Z,101652.50
2022-08-30T02:14:26.308Z,101654.06
2022-08-30T02:16:54.308Z,101658.59
2022-08-30T02:19:22.231Z,101653.47
2022-08-30T02:21:50.253Z,101653.41
2022-08-30T02:24:18.119Z,101649.09
2022-08-30T02:26:47.276Z,101656.91
2022-08-30T02:29:15.707Z,101653.78
2022-08-30T02:31:43.557Z,101644.03
2022-08-30T02:34:11.430Z,101656.94
2022-08-30T02:36:40.824Z,101647.25
2022-08-30T02:39:09.311Z,101652.59
2022-08-30T02:41:38.236Z,101652.47
2022-08-30T02:44:09.293Z,101648.13
2022-08-30T02:46:37.430Z,101651.03
2022-08-30T02:49:30.251Z,101653.44
2022-08-30T02:51:54.112Z,101655.13
2022-08-30T02:54:21.977Z,101651.41
2022-08-30T02:56:51.601Z,101651.47
2022-08-30T02:59:20.983Z,101647.84
2022-08-30T03:01:49.081Z,101643.53
2022-08-30T03:04:17.027Z,101648.81
2022-08-30T03:06:45.593Z,101643.97
2022-08-30T03:09:13.545Z,101649.94
2022-08-30T03:11:42.653Z,101650.78
2022-08-30T03:14:10.468Z,101654.13
2022-08-30T03:16:39.762Z,101646.25
2022-08-30T03:19:07.703Z,101652.63
2022-08-30T03:21:38.975Z,101649.94
2022-08-30T03:24:07.868Z,101653.44
2022-08-30T03:26:35.773Z,101650.06
2022-08-30T03:29:03.834Z,101653.34
2022-08-30T03:31:31.887Z,101655.25
2022-08-30T03:34:21.901Z,101657.00
2022-08-30T03:36:49.912Z,101660.69
2022-08-30T03:39:17.721Z,101652.81
2022-08-30T03:41:45.794Z,101659.56
2022-08-30T03:44:13.853Z,101662.09
2022-08-30T03:46:43.404Z,101664.72
2022-08-30T03:49:11.242Z,101667.22
2022-08-30T03:51:40.540Z,101671.75
2022-08-30T03:54:08.874Z,101671.66
2022-08-30T03:56:37.421Z,101677.81
2022-08-30T03:59:06.361Z,101673.78
2022-08-30T04:01:34.218Z,101673.66
2022-08-30T04:04:02.221Z,101670.00
2022-08-30T04:06:31.745Z,101679.59
2022-08-30T04:09:00.914Z,101676.34
2022-08-30T04:11:28.858Z,101679.53
2022-08-30T04:13:56.852Z,101672.50
2022-08-30T04:16:26.419Z,101673.38
2022-08-30T04:18:54.520Z,101679.50
2022-08-30T04:21:22.843Z,101684.66
2022-08-30T04:23:50.652Z,101673.31
2022-08-30T04:26:20.237Z,101679.41
2022-08-30T04:28:48.466Z,101688.03
2022-08-30T04:31:18.997Z,101681.19
2022-08-30T04:33:47.033Z,101690.09
2022-08-30T04:36:15.508Z,101683.28
2022-08-30T04:38:44.125Z,101686.53
2022-08-30T04:41:16.351Z,101685.66
2022-08-30T04:43:46.677Z,101690.78
2022-08-30T04:46:15.491Z,101693.38
2022-08-30T04:48:43.716Z,101700.22
2022-08-30T04:51:16.712Z,101699.47
2022-08-30T04:53:45.965Z,101702.38
2022-08-30T04:56:17.448Z,101697.81
2022-08-30T04:58:48.658Z,101697.69
2022-08-30T05:01:21.658Z,101698.59
2022-08-30T05:03:54.206Z,101692.50
2022-08-30T05:06:23.368Z,101701.88
2022-08-30T05:08:51.838Z,101704.47
2022-08-30T05:11:19.954Z,101701.91
2022-08-30T05:13:49.761Z,101695.72
2022-08-30T05:16:19.558Z,101702.66
2022-08-30T05:18:49.399Z,101705.31
2022-08-30T05:21:21.212Z,101705.28
2022-08-30T05:23:50.535Z,101707.84
2022-08-30T05:26:22.573Z,101718.31
2022-08-30T05:28:55.078Z,101719.97
2022-08-30T05:31:26.298Z,101718.34
2022-08-30T05:33:56.605Z,101718.47
2022-08-30T05:36:28.221Z,101719.25
2022-08-30T05:38:57.039Z,101716.47
2022-08-30T05:41:26.621Z,101713.88
2022-08-30T05:43:59.404Z,101721.44
2022-08-30T05:49:08.590Z,101720.56
2022-08-30T05:51:42.982Z,101717.94
2022-08-30T05:54:13.409Z,101716.09
2022-08-30T05:56:44.380Z,101720.50
2022-08-30T05:59:15.370Z,101719.66
2022-08-30T06:01:46.170Z,101724.06
2022-08-30T06:04:15.020Z,101721.38
2022-08-30T06:06:45.265Z,101721.25
2022-08-30T06:09:15.770Z,101724.63
2022-08-30T06:11:44.368Z,101725.47
2022-08-30T06:14:13.982Z,101728.09
2022-08-30T06:16:44.170Z,101725.50
2022-08-30T06:19:13.090Z,101727.16
2022-08-30T06:21:42.686Z,101730.81
2022-08-30T06:24:12.958Z,101731.78
2022-08-30T06:26:45.428Z,101726.63
2022-08-30T06:29:19.201Z,101729.22
2022-08-30T06:31:47.467Z,101726.28
2022-08-30T06:34:15.846Z,101726.06
2022-08-30T06:36:44.214Z,101723.28
2022-08-30T06:39:12.492Z,101727.53
2022-08-30T06:41:42.694Z,101732.66
2022-08-30T06:44:10.608Z,101743.38
2022-08-30T06:46:40.511Z,101745.91
2022-08-30T06:49:08.709Z,101746.59
2022-08-30T06:51:41.315Z,101743.94
2022-08-30T06:54:12.280Z,101745.78
2022-08-30T06:56:55.281Z,101741.38
2022-08-30T06:59:25.910Z,101741.84
2022-08-30T07:01:56.375Z,101751.94
2022-08-30T07:04:25.045Z,101748.78
2022-08-30T07:06:53.337Z,101750.91
2022-08-30T07:09:22.861Z,101751.34
2022-08-30T07:11:52.773Z,101744.19
2022-08-30T07:14:21.551Z,101741.88
2022-08-30T07:16:51.257Z,101751.72
2022-08-30T07:19:22.662Z,101746.78
2022-08-30T07:21:51.172Z,101743.41
2022-08-30T07:24:20.235Z,101751.16
2022-08-30T07:26:52.046Z,101750.66
2022-08-30T07:29:21.207Z,101747.75
2022-08-30T07:31:49.585Z,101752.09
2022-08-30T07:34:19.280Z,101743.91
2022-08-30T07:36:49.930Z,101747.03
2022-08-30T07:39:17.807Z,101751.56
2022-08-30T07:41:45.735Z,101763.47
2022-08-30T07:44:13.650Z,101768.06
2022-08-30T07:46:42.925Z,101754.25
2022-08-30T07:49:13.054Z,101767.22
2022-08-30T07:51:41.842Z,101768.59
2022-08-30T07:54:11.039Z,101778.47
2022-08-30T07:56:39.010Z,101777.31
2022-08-30T07:59:06.946Z,101779.03
2022-08-30T08:01:35.114Z,101780.28
2022-08-30T08:04:03.796Z,101771.34
2022-08-30T08:06:34.721Z,101777.69
2022-08-30T08:09:02.944Z,101781.97
2022-08-30T08:11:33.805Z,101768.28
2022-08-30T08:14:02.845Z,101779.06
2022-08-30T08:16:34.370Z,101771.09
2022-08-30T08:19:02.577Z,101771.94
2022-08-30T08:21:30.483Z,101771.16
2022-08-30T08:23:58.332Z,101777.34
2022-08-30T08:26:26.165Z,101775.16
2022-08-30T08:28:55.731Z,101784.16
2022-08-30T08:31:29.932Z,101785.63
2022-08-30T08:34:04.203Z,101795.34
2022-08-30T08:36:33.224Z,101787.38
2022-08-30T08:39:02.607Z,101797.28
2022-08-30T08:41:51.110Z,101796.91
2022-08-30T08:44:55.471Z,101804.78
2022-08-30T08:47:37.470Z,101802.06
2022-08-30T08:50:12.384Z,101802.41
2022-08-30T08:53:24.927Z,101794.13
2022-08-30T08:55:59.797Z,101801.88
2022-08-30T08:58:45.709Z,101808.00
2022-08-30T09:01:19.561Z,101819.50
2022-08-30T09:03:48.311Z,101810.75
2022-08-30T09:06:47.629Z,101812.50
2022-08-30T09:09:17.708Z,101803.41
2022-08-30T09:11:48.943Z,101820.16
2022-08-30T09:14:23.541Z,101818.59
2022-08-30T09:17:03.735Z,101822.06
2022-08-30T09:19:41.327Z,101820.16
2022-08-30T09:22:22.640Z,101816.72
2022-08-30T09:24:54.546Z,101819.19
2022-08-30T09:27:28.105Z,101823.75
2022-08-30T09:30:02.376Z,101828.19
2022-08-30T09:32:37.049Z,101819.94
2022-08-30T09:35:12.014Z,101818.31
2022-08-30T09:37:47.880Z,101830.59
2022-08-30T09:40:29.715Z,101832.16
2022-08-30T09:43:08.736Z,101834.66
2022-08-30T09:45:47.176Z,101827.03
2022-08-30T09:48:32.985Z,101823.63
2022-08-30T09:51:33.384Z,101820.72
2022-08-30T09:54:18.120Z,101824.22
2022-08-30T09:57:05.113Z,101823.25
2022-08-30T09:59:57.900Z,101820.47
2022-08-30T10:02:49.062Z,101821.25
2022-08-30T10:05:28.492Z,101823.09
2022-08-30T10:08:13.146Z,101824.00
2022-08-30T10:10:52.751Z,101825.50
2022-08-30T10:13:47.787Z,101806.81
2022-08-30T10:16:32.561Z,101818.91
2022-08-30T10:19:19.592Z,101815.47
2022-08-30T10:21:58.760Z,101822.75
2022-08-30T10:24:33.787Z,101818.34
2022-08-30T10:27:09.587Z,101805.50
2022-08-30T10:29:45.259Z,101806.75
2022-08-30T10:32:22.568Z,101807.28
2022-08-30T10:34:57.447Z,101794.25
2022-08-30T10:37:30.577Z,101809.75
2022-08-30T10:40:26.559Z,101805.41
2022-08-30T10:42:59.405Z,101796.41
2022-08-30T10:45:33.952Z,101787.53
2022-08-30T10:48:12.337Z,101784.25
2022-08-30T10:50:47.379Z,101796.16
2022-08-30T10:53:29.350Z,101790.06
2022-08-30T10:56:04.206Z,101789.44
2022-08-30T10:58:33.111Z,101779.00
2022-08-30T11:01:26.700Z,101772.78
2022-08-30T11:04:46.268Z,101789.00
2022-08-30T11:07:28.724Z,101781.13
2022-08-30T11:10:22.319Z,101784.63
2022-08-30T11:16:02.084Z,101783.16
2022-08-30T11:18:34.468Z,101774.63
2022-08-30T11:21:24.070Z,101770.22
2022-08-30T11:24:10.847Z,101779.69
2022-08-30T11:27:01.601Z,101778.28
2022-08-30T11:29:42.430Z,101771.84
2022-08-30T11:32:59.885Z,101762.25
2022-08-30T11:35:48.078Z,101769.59
2022-08-30T11:39:03.844Z,101760.03
2022-08-30T11:41:42.052Z,101761.97
2022-08-30T11:44:32.353Z,101750.75
2022-08-30T11:47:03.348Z,101747.00
2022-08-30T11:49:58.679Z,101742.59
2022-08-30T11:52:46.699Z,101741.69
2022-08-30T11:55:43.110Z,101728.38
2022-08-30T11:58:28.278Z,101734.41
2022-08-30T12:01:51.092Z,101731.81
2022-08-30T12:04:37.916Z,101745.59
2022-08-30T12:07:09.097Z,101742.72
2022-08-30T12:10:07.023Z,101737.28
2022-08-30T12:12:56.439Z,101742.06
2022-08-30T12:15:57.861Z,101742.41
2022-08-30T12:18:33.835Z,101727.13
2022-08-30T12:21:13.249Z,101732.88
2022-08-30T12:23:51.449Z,101725.09
2022-08-30T12:26:36.159Z,101734.94
2022-08-30T12:29:13.951Z,101720.13
2022-08-30T12:31:47.217Z,101724.59
2022-08-30T12:34:28.760Z,101717.75
2022-08-30T12:37:04.497Z,101718.72
2022-08-30T12:39:36.415Z,101715.66
2022-08-30T12:42:19.764Z,101708.78
2022-08-30T12:44:50.253Z,101717.22
2022-08-30T12:47:25.637Z,101715.22
2022-08-30T12:49:56.521Z,101707.09
2022-08-30T12:52:36.665Z,101720.41
2022-08-30T12:55:19.158Z,101708.97
2022-08-30T12:58:01.287Z,101707.09
2022-08-30T13:00:32.914Z,101714.28
2022-08-30T13:03:21.890Z,101711.50
2022-08-30T13:05:54.533Z,101707.88
2022-08-30T13:08:26.262Z,101696.53
2022-08-30T13:11:04.393Z,101693.25
2022-08-30T13:13:41.629Z,101698.59
2022-08-30T13:16:26.715Z,101693.34
2022-08-30T13:19:28.857Z,101680.13
2022-08-30T13:22:00.354Z,101681.56
2022-08-30T13:24:29.072Z,101684.22
2022-08-30T13:27:03.262Z,101685.25
2022-08-30T13:29:31.949Z,101675.44
2022-08-30T13:32:00.041Z,101681.88
2022-08-30T13:34:32.922Z,101673.25
2022-08-30T13:37:03.977Z,101679.22
2022-08-30T13:39:32.552Z,101675.31
2022-08-30T13:44:49.894Z,101680.84
2022-08-30T13:47:35.627Z,101674.59
2022-08-30T13:50:06.589Z,101673.28
2022-08-30T13:52:37.069Z,101674.22
2022-08-30T13:55:07.738Z,101672.53
2022-08-30T14:00:25.019Z,101669.47
2022-08-30T14:02:57.264Z,101670.84
2022-08-30T14:05:48.413Z,101669.91
2022-08-30T14:11:13.046Z,101668.81
2022-08-30T14:16:32.396Z,101673.03
2022-08-30T14:19:01.814Z,101673.47
2022-08-30T14:21:30.414Z,101672.38
2022-08-30T14:23:59.809Z,101666.81
2022-08-30T14:26:33.645Z,101669.38
2022-08-30T14:29:03.214Z,101669.69
2022-08-30T14:31:32.795Z,101681.09
2022-08-30T14:34:03.282Z,101666.34
2022-08-30T14:36:33.295Z,101670.38
2022-08-30T14:39:06.230Z,101677.75
2022-08-30T14:41:43.589Z,101679.63
2022-08-30T14:44:12.258Z,101677.09
2022-08-30T14:46:40.605Z,101687.53
2022-08-30T14:49:10.245Z,101681.16
2022-08-30T14:51:39.513Z,101686.19
2022-08-30T14:54:10.444Z,101689.56
2022-08-30T14:56:40.233Z,101684.19
2022-08-30T14:59:08.953Z,101682.63
2022-08-30T15:01:38.934Z,101680.94
2022-08-30T15:04:09.399Z,101679.22
2022-08-30T15:06:38.623Z,101682.66
2022-08-30T15:09:12.520Z,101687.91
2022-08-30T15:11:41.972Z,101690.53
2022-08-30T15:14:15.399Z,101682.22
2022-08-30T15:16:44.462Z,101681.78
2022-08-30T15:19:13.298Z,101677.94
2022-08-30T15:21:44.074Z,101684.25
2022-08-30T15:24:18.319Z,101683.66
2022-08-30T15:26:46.864Z,101684.88
2022-08-30T15:29:19.754Z,101689.59
2022-08-30T15:31:49.814Z,101681.66
2022-08-30T15:34:21.488Z,101686.81
2022-08-30T15:36:56.169Z,101691.16
2022-08-30T15:39:25.820Z,101693.31
2022-08-30T15:42:00.307Z,101681.66
2022-08-30T15:44:30.820Z,101678.97
2022-08-30T15:46:59.255Z,101672.09
2022-08-30T15:49:27.364Z,101673.63
2022-08-30T15:51:55.444Z,101667.38
2022-08-30T15:54:25.385Z,101671.69
2022-08-30T15:56:59.402Z,101674.91
2022-08-30T15:59:28.912Z,101673.25
2022-08-30T16:01:57.488Z,101664.41
2022-08-30T16:04:25.993Z,101678.66
2022-08-30T16:06:54.770Z,101663.69
2022-08-30T16:09:26.528Z,101669.00
2022-08-30T16:11:58.168Z,101666.25
2022-08-30T16:14:27.548Z,101671.84
2022-08-30T16:16:55.699Z,101665.28
2022-08-30T16:19:23.647Z,101678.28
2022-08-30T16:21:52.448Z,101665.34
2022-08-30T16:24:22.825Z,101663.84
2022-08-30T16:26:52.532Z,101668.53
2022-08-30T16:29:21.146Z,101673.69
2022-08-30T16:31:50.225Z,101662.44
2022-08-30T16:34:21.072Z,101662.22
2022-08-30T16:36:49.587Z,101660.09
2022-08-30T16:39:17.760Z,101658.41
2022-08-30T16:41:46.537Z,101654.50
2022-08-30T16:44:16.015Z,101660.53
2022-08-30T16:46:52.687Z,101669.75
2022-08-30T16:49:22.985Z,101661.22
2022-08-30T16:51:51.487Z,101669.16
2022-08-30T16:54:20.881Z,101664.28
2022-08-30T16:56:48.970Z,101655.28
2022-08-30T16:59:18.927Z,101661.03
2022-08-30T17:01:48.160Z,101654.56
2022-08-30T17:04:19.228Z,101648.31
2022-08-30T17:06:49.784Z,101649.75
2022-08-30T17:09:19.029Z,101660.75
2022-08-30T17:11:47.636Z,101656.19
2022-08-30T17:14:17.848Z,101659.44
2022-08-30T17:16:52.316Z,101662.28
2022-08-30T17:19:27.213Z,101665.25
2022-08-30T17:21:58.064Z,101660.47
2022-08-30T17:24:26.680Z,101667.53
2022-08-30T17:26:55.185Z,101672.47
2022-08-30T17:29:23.276Z,101676.88
2022-08-30T17:31:52.560Z,101669.94
2022-08-30T17:34:21.195Z,101673.41
2022-08-30T17:36:52.578Z,101690.25
2022-08-30T17:39:22.079Z,101690.25
2022-08-30T17:41:51.617Z,101695.09
2022-08-30T17:44:25.869Z,101699.34
2022-08-30T17:46:57.160Z,101695.22
2022-08-30T17:49:26.801Z,101697.00
2022-08-30T17:51:57.053Z,101698.28
2022-08-30T17:54:26.602Z,101693.47
2022-08-30T17:56:55.395Z,101701.47
2022-08-30T17:59:25.089Z,101711.47
2022-08-30T18:01:56.238Z,101703.31
2022-08-30T18:04:25.735Z,101704.06
2022-08-30T18:06:54.749Z,101714.75
2022-08-30T18:09:23.785Z,101713.69
2022-08-30T18:11:52.380Z,101722.47
2022-08-30T18:14:25.025Z,101720.72
2022-08-30T18:16:54.763Z,101722.66
2022-08-30T18:19:24.941Z,101741.22
2022-08-30T18:21:54.339Z,101734.41
2022-08-30T18:24:23.824Z,101725.19
2022-08-30T18:26:54.591Z,101727.81
2022-08-30T18:29:29.177Z,101731.75
2022-08-30T18:31:59.426Z,101731.53
2022-08-30T18:34:29.135Z,101738.06
2022-08-30T18:36:57.872Z,101729.56
2022-08-30T18:39:26.906Z,101741.59
2022-08-30T18:41:57.087Z,101755.13
2022-08-30T18:44:28.938Z,101755.81
2022-08-30T18:47:00.523Z,101761.78
2022-08-30T18:49:33.412Z,101758.72
2022-08-30T18:52:02.421Z,101762.22
2022-08-30T18:54:31.122Z,101759.28
2022-08-30T18:56:59.317Z,101754.00
2022-08-30T18:59:35.607Z,101758.31
2022-08-30T19:02:18.073Z,101754.22
2022-08-30T19:04:49.008Z,101755.38
2022-08-30T19:07:20.246Z,101758.72
2022-08-30T19:09:51.322Z,101750.41
2022-08-30T19:12:19.323Z,101747.47
2022-08-30T19:14:47.261Z,101744.81
2022-08-30T19:17:15.628Z,101740.78
2022-08-30T19:19:48.251Z,101739.84
2022-08-30T19:22:19.470Z,101735.81
2022-08-30T19:24:47.809Z,101740.22
2022-08-30T19:27:21.569Z,101733.88
2022-08-30T19:30:06.998Z,101741.00
2022-08-30T19:32:35.725Z,101745.63
2022-08-30T19:35:04.141Z,101743.00
2022-08-30T19:37:34.386Z,101746.66
2022-08-30T19:40:02.898Z,101743.44
2022-08-30T19:42:30.787Z,101757.56
2022-08-30T19:44:58.742Z,101758.56
2022-08-30T19:47:26.972Z,101767.28
2022-08-30T19:49:55.242Z,101760.13
2022-08-30T19:52:23.599Z,101764.22
2022-08-30T19:54:57.325Z,101763.00
2022-08-30T19:57:25.859Z,101763.38
2022-08-30T19:59:55.881Z,101758.09
2022-08-30T20:02:23.794Z,101764.31
2022-08-30T20:04:55.383Z,101768.53
2022-08-30T20:07:27.592Z,101771.63
2022-08-30T20:09:57.625Z,101767.91
2022-08-30T20:12:25.453Z,101767.56
2022-08-30T20:14:53.726Z,101761.91
2022-08-30T20:17:34.137Z,101772.94
2022-08-30T20:20:18.605Z,101765.25
2022-08-30T20:22:50.970Z,101775.44
2022-08-30T20:25:23.896Z,101779.28
2022-08-30T20:27:52.252Z,101783.78
2022-08-30T20:30:20.531Z,101783.41
2022-08-30T20:32:48.638Z,101779.16
2022-08-30T20:35:18.221Z,101788.91
2022-08-30T20:37:46.750Z,101790.41
2022-08-30T20:40:16.338Z,101792.34
2022-08-30T20:42:46.327Z,101793.38
2022-08-30T20:45:17.736Z,101791.88
2022-08-30T20:47:46.139Z,101792.06
2022-08-30T20:50:16.749Z,101784.66
2022-08-30T20:52:46.155Z,101788.91
2022-08-30T20:55:14.928Z,101784.81
2022-08-30T20:57:42.811Z,101794.16
2022-08-30T21:00:14.412Z,101789.06
2022-08-30T21:02:46.992Z,101786.53
2022-08-30T21:05:18.230Z,101790.00
2022-08-30T21:07:48.182Z,101792.38
2022-08-30T21:10:21.298Z,101782.84
2022-08-30T21:12:51.887Z,101797.94
2022-08-30T21:15:38.439Z,101797.84
2022-08-30T21:18:06.741Z,101806.50
2022-08-30T21:20:34.636Z,101801.13
2022-08-30T21:23:02.525Z,101808.19
2022-08-30T21:25:33.203Z,101797.88
2022-08-30T21:28:01.339Z,101797.88
2022-08-30T21:30:30.669Z,101808.22
2022-08-30T21:32:59.925Z,101803.91
2022-08-30T21:35:46.072Z,101806.34
2022-08-30T21:38:14.205Z,101818.78
2022-08-30T21:40:42.707Z,101816.19
2022-08-30T21:43:11.203Z,101811.88
2022-08-30T21:45:41.580Z,101814.47
2022-08-30T21:48:11.609Z,101812.69
2022-08-30T21:50:41.955Z,101811.81
2022-08-30T21:53:10.866Z,101813.59
2022-08-30T21:55:43.733Z,101810.97
2022-08-30T21:58:12.099Z,101807.50
2022-08-30T22:00:41.257Z,101799.50
2022-08-30T22:03:09.265Z,101803.09
2022-08-30T22:05:37.243Z,101802.25
2022-08-30T22:08:05.447Z,101806.56
2022-08-30T22:10:33.565Z,101813.56
2022-08-30T22:13:01.608Z,101805.66
2022-08-30T22:15:31.784Z,101809.94
2022-08-30T22:18:01.534Z,101820.56
2022-08-30T22:20:30.534Z,101817.84
2022-08-30T22:22:59.064Z,101814.16
2022-08-30T22:25:26.967Z,101820.41
2022-08-30T22:27:54.834Z,101818.78
2022-08-30T22:30:22.676Z,101821.41
2022-08-30T22:32:50.654Z,101816.94
2022-08-30T22:35:21.903Z,101826.59
2022-08-30T22:37:53.277Z,101822.25
2022-08-30T22:40:22.283Z,101825.69
2022-08-30T22:42:50.302Z,101830.94
2022-08-30T22:45:18.358Z,101823.00
2022-08-30T22:47:46.238Z,101823.97
2022-08-30T22:50:14.235Z,101827.47
2022-08-30T22:52:44.007Z,101831.84
2022-08-30T22:55:12.218Z,101831.84
2022-08-30T22:57:41.158Z,101828.31
2022-08-30T23:00:15.933Z,101824.78
2022-08-30T23:02:44.850Z,101837.94
2022-08-30T23:05:14.073Z,101834.44
2022-08-30T23:07:44.243Z,101840.47
2022-08-30T23:10:15.191Z,101834.38
2022-08-30T23:12:43.493Z,101835.16
2022-08-30T23:15:16.005Z,101844.84
2022-08-30T23:17:43.847Z,101839.63
2022-08-30T23:20:12.893Z,101845.72
2022-08-30T23:22:40.852Z,101835.25
2022-08-30T23:25:32.013Z,101832.72
2022-08-30T23:28:21.905Z,101832.69
2022-08-30T23:31:07.561Z,101840.41
2022-08-30T23:33:53.033Z,101836.13
2022-08-30T23:36:38.496Z,101842.19
2022-08-30T23:39:24.054Z,101844.84
2022-08-30T23:42:10.898Z,101841.41
2022-08-30T23:44:56.356Z,101848.28
2022-08-30T23:47:41.997Z,101839.63
2022-08-30T23:50:27.938Z,101832.69
2022-08-30T23:53:13.557Z,101839.63
2022-08-30T23:55:59.566Z,101848.25
2022-08-30T23:58:46.326Z,101836.09
